sensor_id;sensor_type;location;lat;lon;timestamp;temperature;humidity
56725;DHT22;42608;52.776;6.968;2023-06-26T00:02:14;24.00;99.90
56725;DHT22;42608;52.776;6.968;2023-06-26T00:04:42;23.90;99.90
56725;DHT22;42608;52.776;6.968;2023-06-26T00:07:07;23.90;99.90
56725;DHT22;42608;52.776;6.968;2023-06-26T00:09:36;23.90;99.90
56725;DHT22;42608;52.776;6.968;2023-06-26T00:12:01;23.90;99.90
56725;DHT22;42608;52.776;6.968;2023-06-26T00:14:27;23.80;99.90
56725;DHT22;42608;52.776;6.968;2023-06-26T00:16:53;23.80;99.90
56725;DHT22;42608;52.776;6.968;2023-06-26T00:19:18;23.80;99.90
56725;DHT22;42608;52.776;6.968;2023-06-26T00:21:44;23.80;99.90
56725;DHT22;42608;52.776;6.968;2023-06-26T00:24:12;23.70;99.90
56725;DHT22;42608;52.776;6.968;2023-06-26T00:26:37;23.70;99.90
56725;DHT22;42608;52.776;6.968;2023-06-26T00:29:03;23.70;99.90
56725;DHT22;42608;52.776;6.968;2023-06-26T00:31:28;23.60;99.90
56725;DHT22;42608;52.776;6.968;2023-06-26T00:33:54;23.60;99.90
56725;DHT22;42608;52.776;6.968;2023-06-26T00:36:20;23.60;99.90
56725;DHT22;42608;52.776;6.968;2023-06-26T00:38:48;23.50;99.90
56725;DHT22;42608;52.776;6.968;2023-06-26T00:41:14;23.50;99.90
56725;DHT22;42608;52.776;6.968;2023-06-26T00:43:40;23.50;99.90
56725;DHT22;42608;52.776;6.968;2023-06-26T00:46:06;23.50;99.90
56725;DHT22;42608;52.776;6.968;2023-06-26T00:48:33;23.50;99.90
56725;DHT22;42608;52.776;6.968;2023-06-26T00:51:05;23.50;99.90
56725;DHT22;42608;52.776;6.968;2023-06-26T00:53:31;23.40;99.90
56725;DHT22;42608;52.776;6.968;2023-06-26T00:55:57;23.40;99.90
56725;DHT22;42608;52.776;6.968;2023-06-26T00:58:24;23.40;99.90
56725;DHT22;42608;52.776;6.968;2023-06-26T01:00:50;23.40;99.90
56725;DHT22;42608;52.776;6.968;2023-06-26T01:03:16;23.30;99.90
56725;DHT22;42608;52.776;6.968;2023-06-26T01:05:41;23.30;99.90
56725;DHT22;42608;52.776;6.968;2023-06-26T01:08:13;23.30;99.90
56725;DHT22;42608;52.776;6.968;2023-06-26T01:10:39;23.30;99.90
56725;DHT22;42608;52.776;6.968;2023-06-26T01:13:05;23.20;99.90
56725;DHT22;42608;52.776;6.968;2023-06-26T01:15:31;23.20;99.90
56725;DHT22;42608;52.776;6.968;2023-06-26T01:17:57;23.20;99.90
56725;DHT22;42608;52.776;6.968;2023-06-26T01:20:25;23.20;99.90
56725;DHT22;42608;52.776;6.968;2023-06-26T01:25:37;23.20;99.90
56725;DHT22;42608;52.776;6.968;2023-06-26T01:28:05;23.10;99.90
56725;DHT22;42608;52.776;6.968;2023-06-26T01:30:32;23.10;99.90
56725;DHT22;42608;52.776;6.968;2023-06-26T01:32:58;23.00;99.90
56725;DHT22;42608;52.776;6.968;2023-06-26T01:35:24;23.00;99.90
56725;DHT22;42608;52.776;6.968;2023-06-26T01:37:50;23.00;99.90
56725;DHT22;42608;52.776;6.968;2023-06-26T01:40:15;23.00;99.90
56725;DHT22;42608;52.776;6.968;2023-06-26T01:42:41;23.00;99.90
56725;DHT22;42608;52.776;6.968;2023-06-26T01:45:10;23.00;99.90
56725;DHT22;42608;52.776;6.968;2023-06-26T01:47:38;22.90;99.90
56725;DHT22;42608;52.776;6.968;2023-06-26T01:50:09;22.90;99.90
56725;DHT22;42608;52.776;6.968;2023-06-26T01:55:59;22.80;99.90
56725;DHT22;42608;52.776;6.968;2023-06-26T01:58:14;22.80;99.90
56725;DHT22;42608;52.776;6.968;2023-06-26T02:00:40;22.80;99.90
56725;DHT22;42608;52.776;6.968;2023-06-26T02:03:06;22.80;99.90
56725;DHT22;42608;52.776;6.968;2023-06-26T02:05:32;22.80;99.90
56725;DHT22;42608;52.776;6.968;2023-06-26T02:07:57;22.80;99.90
56725;DHT22;42608;52.776;6.968;2023-06-26T02:10:23;22.80;99.90
56725;DHT22;42608;52.776;6.968;2023-06-26T02:12:49;22.80;99.90
56725;DHT22;42608;52.776;6.968;2023-06-26T02:15:14;22.80;99.90
56725;DHT22;42608;52.776;6.968;2023-06-26T02:17:40;22.70;99.90
56725;DHT22;42608;52.776;6.968;2023-06-26T02:20:06;22.70;99.90
56725;DHT22;42608;52.776;6.968;2023-06-26T02:22:33;22.70;99.90
56725;DHT22;42608;52.776;6.968;2023-06-26T02:24:58;22.70;99.90
56725;DHT22;42608;52.776;6.968;2023-06-26T02:27:24;22.70;99.90
56725;DHT22;42608;52.776;6.968;2023-06-26T02:29:49;22.70;99.90
56725;DHT22;42608;52.776;6.968;2023-06-26T02:32:15;22.70;99.90
56725;DHT22;42608;52.776;6.968;2023-06-26T02:34:40;22.60;99.90
56725;DHT22;42608;52.776;6.968;2023-06-26T02:37:06;22.60;99.90
56725;DHT22;42608;52.776;6.968;2023-06-26T02:39:33;22.60;99.90
56725;DHT22;42608;52.776;6.968;2023-06-26T02:41:58;22.60;99.90
56725;DHT22;42608;52.776;6.968;2023-06-26T02:44:24;22.50;99.90
56725;DHT22;42608;52.776;6.968;2023-06-26T02:46:50;22.50;99.90
56725;DHT22;42608;52.776;6.968;2023-06-26T02:49:15;22.50;99.90
56725;DHT22;42608;52.776;6.968;2023-06-26T02:51:47;22.50;99.90
56725;DHT22;42608;52.776;6.968;2023-06-26T02:54:12;22.40;99.90
56725;DHT22;42608;52.776;6.968;2023-06-26T02:56:38;22.40;99.90
56725;DHT22;42608;52.776;6.968;2023-06-26T02:59:04;22.40;99.90
56725;DHT22;42608;52.776;6.968;2023-06-26T03:01:29;22.30;99.90
56725;DHT22;42608;52.776;6.968;2023-06-26T03:03:55;22.30;99.90
56725;DHT22;42608;52.776;6.968;2023-06-26T03:06:20;22.30;99.90
56725;DHT22;42608;52.776;6.968;2023-06-26T03:08:46;22.30;99.90
56725;DHT22;42608;52.776;6.968;2023-06-26T03:11:12;22.30;99.90
56725;DHT22;42608;52.776;6.968;2023-06-26T03:13:37;22.20;99.90
56725;DHT22;42608;52.776;6.968;2023-06-26T03:16:03;22.20;99.90
56725;DHT22;42608;52.776;6.968;2023-06-26T03:18:29;22.20;99.90
56725;DHT22;42608;52.776;6.968;2023-06-26T03:20:55;22.20;99.90
56725;DHT22;42608;52.776;6.968;2023-06-26T03:23:20;22.20;99.90
56725;DHT22;42608;52.776;6.968;2023-06-26T03:25:47;22.10;99.90
56725;DHT22;42608;52.776;6.968;2023-06-26T03:28:12;22.10;99.90
56725;DHT22;42608;52.776;6.968;2023-06-26T03:30:38;22.10;99.90
56725;DHT22;42608;52.776;6.968;2023-06-26T03:33:03;22.10;99.90
56725;DHT22;42608;52.776;6.968;2023-06-26T03:35:29;22.10;99.90
56725;DHT22;42608;52.776;6.968;2023-06-26T03:37:54;22.00;99.90
56725;DHT22;42608;52.776;6.968;2023-06-26T03:40:20;22.00;99.90
56725;DHT22;42608;52.776;6.968;2023-06-26T03:42:46;22.00;99.90
56725;DHT22;42608;52.776;6.968;2023-06-26T03:45:11;22.00;99.90
56725;DHT22;42608;52.776;6.968;2023-06-26T03:47:37;21.90;99.90
56725;DHT22;42608;52.776;6.968;2023-06-26T03:50:02;21.90;99.90
56725;DHT22;42608;52.776;6.968;2023-06-26T03:52:28;21.90;99.90
56725;DHT22;42608;52.776;6.968;2023-06-26T03:54:57;21.90;99.90
56725;DHT22;42608;52.776;6.968;2023-06-26T03:57:22;21.90;99.90
56725;DHT22;42608;52.776;6.968;2023-06-26T03:59:48;21.90;99.90
56725;DHT22;42608;52.776;6.968;2023-06-26T04:02:13;21.90;99.90
56725;DHT22;42608;52.776;6.968;2023-06-26T04:04:39;21.90;99.90
56725;DHT22;42608;52.776;6.968;2023-06-26T04:07:04;21.90;99.90
56725;DHT22;42608;52.776;6.968;2023-06-26T04:09:30;21.90;99.90
56725;DHT22;42608;52.776;6.968;2023-06-26T04:11:55;21.80;99.90
56725;DHT22;42608;52.776;6.968;2023-06-26T04:14:21;21.80;99.90
56725;DHT22;42608;52.776;6.968;2023-06-26T04:16:47;21.80;99.90
56725;DHT22;42608;52.776;6.968;2023-06-26T04:19:14;21.80;99.90
56725;DHT22;42608;52.776;6.968;2023-06-26T04:21:39;21.80;99.90
56725;DHT22;42608;52.776;6.968;2023-06-26T04:24:05;21.80;99.90
56725;DHT22;42608;52.776;6.968;2023-06-26T04:26:31;21.90;99.90
56725;DHT22;42608;52.776;6.968;2023-06-26T04:28:56;21.90;99.90
56725;DHT22;42608;52.776;6.968;2023-06-26T04:31:22;21.80;99.90
56725;DHT22;42608;52.776;6.968;2023-06-26T04:33:50;21.90;99.90
56725;DHT22;42608;52.776;6.968;2023-06-26T04:36:17;21.90;99.90
56725;DHT22;42608;52.776;6.968;2023-06-26T04:38:46;21.90;99.90
56725;DHT22;42608;52.776;6.968;2023-06-26T04:41:16;21.90;99.90
56725;DHT22;42608;52.776;6.968;2023-06-26T04:43:44;21.90;99.90
56725;DHT22;42608;52.776;6.968;2023-06-26T04:46:09;22.00;99.90
56725;DHT22;42608;52.776;6.968;2023-06-26T04:48:35;22.00;99.90
56725;DHT22;42608;52.776;6.968;2023-06-26T04:51:01;22.00;99.90
56725;DHT22;42608;52.776;6.968;2023-06-26T04:53:26;22.00;99.90
56725;DHT22;42608;52.776;6.968;2023-06-26T04:55:52;22.00;99.90
56725;DHT22;42608;52.776;6.968;2023-06-26T04:58:18;22.00;99.90
56725;DHT22;42608;52.776;6.968;2023-06-26T05:00:44;22.00;99.90
56725;DHT22;42608;52.776;6.968;2023-06-26T05:03:11;22.00;99.90
56725;DHT22;42608;52.776;6.968;2023-06-26T05:05:36;22.00;99.90
56725;DHT22;42608;52.776;6.968;2023-06-26T05:08:15;22.00;99.90
56725;DHT22;42608;52.776;6.968;2023-06-26T05:10:41;22.00;99.90
56725;DHT22;42608;52.776;6.968;2023-06-26T05:13:10;21.90;99.90
56725;DHT22;42608;52.776;6.968;2023-06-26T05:15:35;21.90;99.90
56725;DHT22;42608;52.776;6.968;2023-06-26T05:18:01;21.90;99.90
56725;DHT22;42608;52.776;6.968;2023-06-26T05:20:27;21.90;99.90
56725;DHT22;42608;52.776;6.968;2023-06-26T05:22:52;21.90;99.90
56725;DHT22;42608;52.776;6.968;2023-06-26T05:25:18;21.90;99.90
56725;DHT22;42608;52.776;6.968;2023-06-26T05:27:46;21.90;99.90
56725;DHT22;42608;52.776;6.968;2023-06-26T05:30:13;22.00;99.90
56725;DHT22;42608;52.776;6.968;2023-06-26T05:32:40;22.00;99.90
56725;DHT22;42608;52.776;6.968;2023-06-26T05:35:05;22.00;99.90
56725;DHT22;42608;52.776;6.968;2023-06-26T05:37:31;22.00;99.90
56725;DHT22;42608;52.776;6.968;2023-06-26T05:39:58;22.00;99.90
56725;DHT22;42608;52.776;6.968;2023-06-26T05:42:24;22.00;99.90
56725;DHT22;42608;52.776;6.968;2023-06-26T05:44:50;22.00;99.90
56725;DHT22;42608;52.776;6.968;2023-06-26T05:47:15;22.00;99.90
56725;DHT22;42608;52.776;6.968;2023-06-26T05:49:42;22.00;99.90
56725;DHT22;42608;52.776;6.968;2023-06-26T05:52:08;21.90;99.90
56725;DHT22;42608;52.776;6.968;2023-06-26T05:54:34;21.90;99.90
56725;DHT22;42608;52.776;6.968;2023-06-26T05:56:59;22.00;99.90
56725;DHT22;42608;52.776;6.968;2023-06-26T05:59:25;22.00;99.90
56725;DHT22;42608;52.776;6.968;2023-06-26T06:01:52;22.00;99.90
56725;DHT22;42608;52.776;6.968;2023-06-26T06:04:17;21.90;99.90
56725;DHT22;42608;52.776;6.968;2023-06-26T06:06:43;21.90;99.90
56725;DHT22;42608;52.776;6.968;2023-06-26T06:09:08;21.90;99.90
56725;DHT22;42608;52.776;6.968;2023-06-26T06:11:34;21.80;99.90
56725;DHT22;42608;52.776;6.968;2023-06-26T06:14:00;21.80;99.90
56725;DHT22;42608;52.776;6.968;2023-06-26T06:16:26;21.70;99.90
56725;DHT22;42608;52.776;6.968;2023-06-26T06:18:51;21.70;99.90
56725;DHT22;42608;52.776;6.968;2023-06-26T06:21:17;21.70;99.90
56725;DHT22;42608;52.776;6.968;2023-06-26T06:23:42;21.70;99.90
56725;DHT22;42608;52.776;6.968;2023-06-26T06:26:08;21.70;99.90
56725;DHT22;42608;52.776;6.968;2023-06-26T06:28:33;21.70;99.90
56725;DHT22;42608;52.776;6.968;2023-06-26T06:30:59;21.70;99.90
56725;DHT22;42608;52.776;6.968;2023-06-26T06:33:25;21.70;99.90
56725;DHT22;42608;52.776;6.968;2023-06-26T06:35:50;21.60;99.90
56725;DHT22;42608;52.776;6.968;2023-06-26T06:38:16;21.60;99.90
56725;DHT22;42608;52.776;6.968;2023-06-26T06:40:41;21.60;99.90
56725;DHT22;42608;52.776;6.968;2023-06-26T06:43:07;21.50;99.90
56725;DHT22;42608;52.776;6.968;2023-06-26T06:45:39;21.60;99.90
56725;DHT22;42608;52.776;6.968;2023-06-26T06:48:04;21.60;99.90
56725;DHT22;42608;52.776;6.968;2023-06-26T06:50:30;21.70;99.90
56725;DHT22;42608;52.776;6.968;2023-06-26T06:52:56;21.60;99.90
56725;DHT22;42608;52.776;6.968;2023-06-26T06:55:22;21.60;99.90
56725;DHT22;42608;52.776;6.968;2023-06-26T06:57:49;21.60;99.90
56725;DHT22;42608;52.776;6.968;2023-06-26T07:00:15;21.60;99.90
56725;DHT22;42608;52.776;6.968;2023-06-26T07:02:44;21.60;99.90
56725;DHT22;42608;52.776;6.968;2023-06-26T07:05:10;21.60;99.90
56725;DHT22;42608;52.776;6.968;2023-06-26T07:07:36;21.50;99.90
56725;DHT22;42608;52.776;6.968;2023-06-26T07:10:07;21.50;99.90
56725;DHT22;42608;52.776;6.968;2023-06-26T07:12:33;21.50;99.90
56725;DHT22;42608;52.776;6.968;2023-06-26T07:14:59;21.50;99.90
56725;DHT22;42608;52.776;6.968;2023-06-26T07:17:25;21.50;99.90
56725;DHT22;42608;52.776;6.968;2023-06-26T07:19:50;21.50;99.90
56725;DHT22;42608;52.776;6.968;2023-06-26T07:22:16;21.50;99.90
56725;DHT22;42608;52.776;6.968;2023-06-26T07:24:42;21.60;99.90
56725;DHT22;42608;52.776;6.968;2023-06-26T07:27:07;21.60;99.90
56725;DHT22;42608;52.776;6.968;2023-06-26T07:29:33;21.70;99.90
56725;DHT22;42608;52.776;6.968;2023-06-26T07:31:58;21.70;99.90
56725;DHT22;42608;52.776;6.968;2023-06-26T07:34:24;21.70;99.90
56725;DHT22;42608;52.776;6.968;2023-06-26T07:36:50;21.70;99.90
56725;DHT22;42608;52.776;6.968;2023-06-26T07:39:18;21.80;99.90
56725;DHT22;42608;52.776;6.968;2023-06-26T07:41:44;21.80;99.90
56725;DHT22;42608;52.776;6.968;2023-06-26T07:44:09;21.80;99.90
56725;DHT22;42608;52.776;6.968;2023-06-26T07:46:35;21.80;99.90
56725;DHT22;42608;52.776;6.968;2023-06-26T07:49:06;21.90;99.90
56725;DHT22;42608;52.776;6.968;2023-06-26T07:51:32;21.90;99.90
56725;DHT22;42608;52.776;6.968;2023-06-26T07:53:57;21.90;99.90
56725;DHT22;42608;52.776;6.968;2023-06-26T07:56:23;21.90;99.90
56725;DHT22;42608;52.776;6.968;2023-06-26T07:58:49;21.90;99.90
56725;DHT22;42608;52.776;6.968;2023-06-26T08:01:14;21.90;99.90
56725;DHT22;42608;52.776;6.968;2023-06-26T08:03:40;21.90;99.90
56725;DHT22;42608;52.776;6.968;2023-06-26T08:06:05;21.90;99.90
56725;DHT22;42608;52.776;6.968;2023-06-26T08:08:31;21.90;99.90
56725;DHT22;42608;52.776;6.968;2023-06-26T08:10:57;21.90;99.90
56725;DHT22;42608;52.776;6.968;2023-06-26T08:13:22;22.00;99.90
56725;DHT22;42608;52.776;6.968;2023-06-26T08:15:48;21.90;99.90
56725;DHT22;42608;52.776;6.968;2023-06-26T08:18:13;22.00;99.90
56725;DHT22;42608;52.776;6.968;2023-06-26T08:20:39;22.00;99.90
56725;DHT22;42608;52.776;6.968;2023-06-26T08:23:05;22.00;99.90
56725;DHT22;42608;52.776;6.968;2023-06-26T08:25:30;22.10;99.90
56725;DHT22;42608;52.776;6.968;2023-06-26T08:27:56;22.10;99.90
56725;DHT22;42608;52.776;6.968;2023-06-26T08:30:22;22.10;99.90
56725;DHT22;42608;52.776;6.968;2023-06-26T08:32:48;22.20;99.90
56725;DHT22;42608;52.776;6.968;2023-06-26T08:35:14;22.20;99.90
56725;DHT22;42608;52.776;6.968;2023-06-26T08:37:39;22.30;99.90
56725;DHT22;42608;52.776;6.968;2023-06-26T08:40:05;22.40;99.90
56725;DHT22;42608;52.776;6.968;2023-06-26T08:42:31;22.40;99.90
56725;DHT22;42608;52.776;6.968;2023-06-26T08:44:57;22.40;99.90
56725;DHT22;42608;52.776;6.968;2023-06-26T08:47:23;22.50;99.90
56725;DHT22;42608;52.776;6.968;2023-06-26T08:49:51;22.50;99.90
56725;DHT22;42608;52.776;6.968;2023-06-26T08:52:24;22.50;99.90
56725;DHT22;42608;52.776;6.968;2023-06-26T08:54:58;22.40;99.90
56725;DHT22;42608;52.776;6.968;2023-06-26T08:57:29;22.30;99.90
56725;DHT22;42608;52.776;6.968;2023-06-26T08:59:55;22.20;99.90
56725;DHT22;42608;52.776;6.968;2023-06-26T09:02:21;22.10;99.90
56725;DHT22;42608;52.776;6.968;2023-06-26T09:04:48;22.10;99.90
56725;DHT22;42608;52.776;6.968;2023-06-26T09:07:14;22.20;99.90
56725;DHT22;42608;52.776;6.968;2023-06-26T09:09:40;22.30;99.90
56725;DHT22;42608;52.776;6.968;2023-06-26T09:12:06;22.40;99.90
56725;DHT22;42608;52.776;6.968;2023-06-26T09:14:31;22.40;99.90
56725;DHT22;42608;52.776;6.968;2023-06-26T09:16:57;22.50;99.90
56725;DHT22;42608;52.776;6.968;2023-06-26T09:19:22;22.50;99.90
56725;DHT22;42608;52.776;6.968;2023-06-26T09:21:49;22.50;99.90
56725;DHT22;42608;52.776;6.968;2023-06-26T09:24:14;22.60;99.90
56725;DHT22;42608;52.776;6.968;2023-06-26T09:26:41;22.70;99.90
56725;DHT22;42608;52.776;6.968;2023-06-26T09:29:07;22.80;99.90
56725;DHT22;42608;52.776;6.968;2023-06-26T09:31:33;22.90;99.90
56725;DHT22;42608;52.776;6.968;2023-06-26T09:33:59;22.80;99.90
56725;DHT22;42608;52.776;6.968;2023-06-26T09:36:29;22.80;99.90
56725;DHT22;42608;52.776;6.968;2023-06-26T09:39:04;22.70;99.90
56725;DHT22;42608;52.776;6.968;2023-06-26T09:41:32;22.60;99.90
56725;DHT22;42608;52.776;6.968;2023-06-26T09:44:00;22.50;99.90
56725;DHT22;42608;52.776;6.968;2023-06-26T09:46:26;22.40;99.90
56725;DHT22;42608;52.776;6.968;2023-06-26T09:51:24;22.40;99.90
56725;DHT22;42608;52.776;6.968;2023-06-26T09:53:50;22.50;99.90
56725;DHT22;42608;52.776;6.968;2023-06-26T09:56:16;22.50;99.90
56725;DHT22;42608;52.776;6.968;2023-06-26T09:58:45;22.70;99.90
56725;DHT22;42608;52.776;6.968;2023-06-26T10:01:14;22.70;99.90
56725;DHT22;42608;52.776;6.968;2023-06-26T10:03:40;22.60;99.90
56725;DHT22;42608;52.776;6.968;2023-06-26T10:06:05;22.50;99.90
56725;DHT22;42608;52.776;6.968;2023-06-26T10:08:31;22.50;99.90
56725;DHT22;42608;52.776;6.968;2023-06-26T10:10:59;22.60;99.90
56725;DHT22;42608;52.776;6.968;2023-06-26T10:13:30;22.70;99.90
56725;DHT22;42608;52.776;6.968;2023-06-26T10:15:56;22.80;99.90
56725;DHT22;42608;52.776;6.968;2023-06-26T10:18:24;22.80;99.90
56725;DHT22;42608;52.776;6.968;2023-06-26T10:20:51;22.70;99.90
56725;DHT22;42608;52.776;6.968;2023-06-26T10:23:19;22.60;99.90
56725;DHT22;42608;52.776;6.968;2023-06-26T10:25:45;22.60;99.90
56725;DHT22;42608;52.776;6.968;2023-06-26T10:28:13;22.70;99.90
56725;DHT22;42608;52.776;6.968;2023-06-26T10:30:40;22.70;99.90
56725;DHT22;42608;52.776;6.968;2023-06-26T10:33:06;22.70;99.90
56725;DHT22;42608;52.776;6.968;2023-06-26T10:35:34;22.70;99.70
56725;DHT22;42608;52.776;6.968;2023-06-26T10:38:09;22.80;99.50
56725;DHT22;42608;52.776;6.968;2023-06-26T10:40:44;22.90;99.00
56725;DHT22;42608;52.776;6.968;2023-06-26T10:43:11;22.90;97.50
56725;DHT22;42608;52.776;6.968;2023-06-26T10:45:37;22.90;96.10
56725;DHT22;42608;52.776;6.968;2023-06-26T10:48:07;22.80;96.00
56725;DHT22;42608;52.776;6.968;2023-06-26T10:50:33;22.70;96.20
56725;DHT22;42608;52.776;6.968;2023-06-26T10:53:09;22.70;96.80
56725;DHT22;42608;52.776;6.968;2023-06-26T10:55:41;22.80;97.00
56725;DHT22;42608;52.776;6.968;2023-06-26T10:58:26;22.80;97.10
56725;DHT22;42608;52.776;6.968;2023-06-26T11:03:36;22.90;97.10
56725;DHT22;42608;52.776;6.968;2023-06-26T11:06:12;23.00;96.20
56725;DHT22;42608;52.776;6.968;2023-06-26T11:08:51;23.10;95.20
56725;DHT22;42608;52.776;6.968;2023-06-26T11:11:19;23.30;93.00
56725;DHT22;42608;52.776;6.968;2023-06-26T11:13:45;23.30;92.70
56725;DHT22;42608;52.776;6.968;2023-06-26T11:16:11;23.40;93.90
56725;DHT22;42608;52.776;6.968;2023-06-26T11:18:38;23.40;94.90
56725;DHT22;42608;52.776;6.968;2023-06-26T11:21:07;23.40;94.60
56725;DHT22;42608;52.776;6.968;2023-06-26T11:23:34;23.40;92.80
56725;DHT22;42608;52.776;6.968;2023-06-26T11:26:16;23.30;91.10
56725;DHT22;42608;52.776;6.968;2023-06-26T11:28:46;23.30;90.40
56725;DHT22;42608;52.776;6.968;2023-06-26T11:31:23;23.30;89.20
56725;DHT22;42608;52.776;6.968;2023-06-26T11:33:52;23.30;90.10
56725;DHT22;42608;52.776;6.968;2023-06-26T11:36:18;23.40;91.90
56725;DHT22;42608;52.776;6.968;2023-06-26T11:38:43;23.30;92.40
56725;DHT22;42608;52.776;6.968;2023-06-26T11:41:09;23.10;92.40
56725;DHT22;42608;52.776;6.968;2023-06-26T11:43:35;23.00;93.00
56725;DHT22;42608;52.776;6.968;2023-06-26T11:46:00;23.10;93.30
56725;DHT22;42608;52.776;6.968;2023-06-26T11:48:26;23.10;92.50
56725;DHT22;42608;52.776;6.968;2023-06-26T11:50:51;23.00;91.70
56725;DHT22;42608;52.776;6.968;2023-06-26T11:53:17;23.00;91.50
56725;DHT22;42608;52.776;6.968;2023-06-26T11:55:46;23.00;91.10
56725;DHT22;42608;52.776;6.968;2023-06-26T11:58:11;23.00;90.60
56725;DHT22;42608;52.776;6.968;2023-06-26T12:00:43;23.00;90.50
56725;DHT22;42608;52.776;6.968;2023-06-26T12:03:09;23.00;90.80
56725;DHT22;42608;52.776;6.968;2023-06-26T12:05:37;23.00;90.30
56725;DHT22;42608;52.776;6.968;2023-06-26T12:08:03;23.10;90.30
56725;DHT22;42608;52.776;6.968;2023-06-26T12:10:32;23.00;90.30
56725;DHT22;42608;52.776;6.968;2023-06-26T12:12:57;23.00;90.10
56725;DHT22;42608;52.776;6.968;2023-06-26T12:15:24;22.90;90.00
56725;DHT22;42608;52.776;6.968;2023-06-26T12:17:49;22.90;91.20
56725;DHT22;42608;52.776;6.968;2023-06-26T12:20:19;23.10;90.40
56725;DHT22;42608;52.776;6.968;2023-06-26T12:22:45;23.10;86.90
56725;DHT22;42608;52.776;6.968;2023-06-26T12:25:11;23.20;88.90
56725;DHT22;42608;52.776;6.968;2023-06-26T12:27:36;23.10;90.60
56725;DHT22;42608;52.776;6.968;2023-06-26T12:30:03;23.10;91.10
56725;DHT22;42608;52.776;6.968;2023-06-26T12:32:28;23.00;91.00
56725;DHT22;42608;52.776;6.968;2023-06-26T12:34:54;23.00;91.40
56725;DHT22;42608;52.776;6.968;2023-06-26T12:37:27;23.00;91.60
56725;DHT22;42608;52.776;6.968;2023-06-26T12:39:54;23.10;91.00
56725;DHT22;42608;52.776;6.968;2023-06-26T12:42:26;23.20;89.70
56725;DHT22;42608;52.776;6.968;2023-06-26T12:44:52;23.20;90.10
56725;DHT22;42608;52.776;6.968;2023-06-26T12:47:19;23.10;90.40
56725;DHT22;42608;52.776;6.968;2023-06-26T12:49:49;23.10;90.00
56725;DHT22;42608;52.776;6.968;2023-06-26T12:52:15;23.10;90.00
56725;DHT22;42608;52.776;6.968;2023-06-26T12:54:42;23.10;90.00
56725;DHT22;42608;52.776;6.968;2023-06-26T12:57:07;23.00;88.80
56725;DHT22;42608;52.776;6.968;2023-06-26T12:59:34;23.00;87.90
56725;DHT22;42608;52.776;6.968;2023-06-26T13:01:59;22.90;85.70
56725;DHT22;42608;52.776;6.968;2023-06-26T13:04:26;22.90;85.50
56725;DHT22;42608;52.776;6.968;2023-06-26T13:06:51;23.00;82.50
56725;DHT22;42608;52.776;6.968;2023-06-26T13:09:19;23.00;79.20
56725;DHT22;42608;52.776;6.968;2023-06-26T13:11:45;23.10;79.70
56725;DHT22;42608;52.776;6.968;2023-06-26T13:14:11;23.30;78.40
56725;DHT22;42608;52.776;6.968;2023-06-26T13:16:36;23.50;75.00
56725;DHT22;42608;52.776;6.968;2023-06-26T13:19:02;23.50;75.00
56725;DHT22;42608;52.776;6.968;2023-06-26T13:21:28;23.50;74.10
56725;DHT22;42608;52.776;6.968;2023-06-26T13:23:54;23.60;75.20
56725;DHT22;42608;52.776;6.968;2023-06-26T13:26:20;23.60;77.10
56725;DHT22;42608;52.776;6.968;2023-06-26T13:28:47;23.60;79.30
56725;DHT22;42608;52.776;6.968;2023-06-26T13:31:13;23.70;80.70
56725;DHT22;42608;52.776;6.968;2023-06-26T13:33:38;23.60;82.40
56725;DHT22;42608;52.776;6.968;2023-06-26T13:36:04;23.50;83.30
56725;DHT22;42608;52.776;6.968;2023-06-26T13:38:32;23.40;83.20
56725;DHT22;42608;52.776;6.968;2023-06-26T13:40:58;23.20;84.00
56725;DHT22;42608;52.776;6.968;2023-06-26T13:43:26;23.10;85.40
56725;DHT22;42608;52.776;6.968;2023-06-26T13:45:51;23.10;86.10
56725;DHT22;42608;52.776;6.968;2023-06-26T13:48:17;23.00;84.80
56725;DHT22;42608;52.776;6.968;2023-06-26T13:50:42;23.00;82.30
56725;DHT22;42608;52.776;6.968;2023-06-26T13:53:08;23.00;83.00
56725;DHT22;42608;52.776;6.968;2023-06-26T13:55:34;23.10;85.00
56725;DHT22;42608;52.776;6.968;2023-06-26T13:58:00;23.10;85.10
56725;DHT22;42608;52.776;6.968;2023-06-26T14:00:29;23.00;84.50
56725;DHT22;42608;52.776;6.968;2023-06-26T14:02:55;23.00;84.00
56725;DHT22;42608;52.776;6.968;2023-06-26T14:05:21;23.00;84.20
56725;DHT22;42608;52.776;6.968;2023-06-26T14:07:48;23.00;81.30
56725;DHT22;42608;52.776;6.968;2023-06-26T14:10:13;22.90;80.10
56725;DHT22;42608;52.776;6.968;2023-06-26T14:12:40;23.00;80.30
56725;DHT22;42608;52.776;6.968;2023-06-26T14:15:05;23.00;80.10
56725;DHT22;42608;52.776;6.968;2023-06-26T14:17:34;22.90;79.60
56725;DHT22;42608;52.776;6.968;2023-06-26T14:19:59;22.90;79.90
56725;DHT22;42608;52.776;6.968;2023-06-26T14:22:25;22.90;80.80
56725;DHT22;42608;52.776;6.968;2023-06-26T14:24:51;22.90;81.50
56725;DHT22;42608;52.776;6.968;2023-06-26T14:27:16;23.00;82.50
56725;DHT22;42608;52.776;6.968;2023-06-26T14:29:42;23.00;83.10
56725;DHT22;42608;52.776;6.968;2023-06-26T14:32:08;23.00;82.30
56725;DHT22;42608;52.776;6.968;2023-06-26T14:34:33;23.00;81.10
56725;DHT22;42608;52.776;6.968;2023-06-26T14:36:59;23.00;82.20
56725;DHT22;42608;52.776;6.968;2023-06-26T14:39:24;22.90;82.20
56725;DHT22;42608;52.776;6.968;2023-06-26T14:41:50;22.90;83.00
56725;DHT22;42608;52.776;6.968;2023-06-26T14:44:16;22.80;82.10
56725;DHT22;42608;52.776;6.968;2023-06-26T14:46:41;22.70;82.50
56725;DHT22;42608;52.776;6.968;2023-06-26T14:49:07;22.80;83.40
56725;DHT22;42608;52.776;6.968;2023-06-26T14:51:33;22.80;83.20
56725;DHT22;42608;52.776;6.968;2023-06-26T14:53:59;22.80;83.10
56725;DHT22;42608;52.776;6.968;2023-06-26T14:56:25;22.80;83.10
56725;DHT22;42608;52.776;6.968;2023-06-26T14:58:50;22.90;83.40
56725;DHT22;42608;52.776;6.968;2023-06-26T15:01:20;23.00;83.80
56725;DHT22;42608;52.776;6.968;2023-06-26T15:03:46;23.20;83.60
56725;DHT22;42608;52.776;6.968;2023-06-26T15:06:12;23.20;83.00
56725;DHT22;42608;52.776;6.968;2023-06-26T15:08:38;23.00;82.10
56725;DHT22;42608;52.776;6.968;2023-06-26T15:11:03;22.90;82.80
56725;DHT22;42608;52.776;6.968;2023-06-26T15:13:29;22.70;83.90
56725;DHT22;42608;52.776;6.968;2023-06-26T15:15:54;22.60;84.80
56725;DHT22;42608;52.776;6.968;2023-06-26T15:18:20;22.60;85.40
56725;DHT22;42608;52.776;6.968;2023-06-26T15:20:45;22.80;84.70
56725;DHT22;42608;52.776;6.968;2023-06-26T15:23:11;23.00;81.80
56725;DHT22;42608;52.776;6.968;2023-06-26T15:25:37;23.00;80.10
56725;DHT22;42608;52.776;6.968;2023-06-26T15:28:03;22.90;80.20
56725;DHT22;42608;52.776;6.968;2023-06-26T15:30:29;22.80;81.50
56725;DHT22;42608;52.776;6.968;2023-06-26T15:32:58;22.70;81.90
56725;DHT22;42608;52.776;6.968;2023-06-26T15:35:24;22.50;83.00
56725;DHT22;42608;52.776;6.968;2023-06-26T15:37:49;22.60;83.80